sensor_id;sensor_type;location;lat;lon;timestamp;pressure;altitude;pressure_sealevel;temperature;humidity
49341;BME280;35209;51.050;13.678;2022-08-01T00:02:10;99722.09;;;22.36;53.18
49341;BME280;35209;51.050;13.678;2022-08-01T00:07:12;99709.72;;;22.45;53.38
49341;BME280;35209;51.050;13.678;2022-08-01T00:12:14;99695.03;;;22.39;53.49
49341;BME280;35209;51.050;13.678;2022-08-01T00:17:15;99692.69;;;22.25;53.86
49341;BME280;35209;51.050;13.678;2022-08-01T00:22:17;99691.50;;;22.17;53.82
49341;BME280;35209;51.050;13.678;2022-08-01T00:27:19;99682.22;;;22.22;53.81
49341;BME280;35209;51.050;13.678;2022-08-01T00:32:20;99689.81;;;22.16;53.83
49341;BME280;35209;51.050;13.678;2022-08-01T00:37:22;99695.66;;;22.10;54.01
49341;BME280;35209;51.050;13.678;2022-08-01T00:42:24;99690.94;;;22.14;53.63
49341;BME280;35209;51.050;13.678;2022-08-01T00:47:25;99688.47;;;22.11;53.50
49341;BME280;35209;51.050;13.678;2022-08-01T00:52:27;99689.13;;;22.03;53.88
49341;BME280;35209;51.050;13.678;2022-08-01T00:57:29;99687.19;;;22.05;53.69
49341;BME280;35209;51.050;13.678;2022-08-01T01:02:51;99689.69;;;21.86;54.42
49341;BME280;35209;51.050;13.678;2022-08-01T01:07:56;99691.88;;;21.60;55.13
49341;BME280;35209;51.050;13.678;2022-08-01T01:18:23;99693.41;;;21.41;55.66
49341;BME280;35209;51.050;13.678;2022-08-01T01:23:46;99693.16;;;21.45;55.67
49341;BME280;35209;51.050;13.678;2022-08-01T01:29:02;99683.56;;;21.31;56.77
49341;BME280;35209;51.050;13.678;2022-08-01T01:34:05;99682.09;;;21.38;55.81
49341;BME280;35209;51.050;13.678;2022-08-01T01:39:08;99677.44;;;21.51;55.43
49341;BME280;35209;51.050;13.678;2022-08-01T01:44:10;99672.19;;;21.61;55.23
49341;BME280;35209;51.050;13.678;2022-08-01T01:49:12;99675.44;;;21.64;54.92
49341;BME280;35209;51.050;13.678;2022-08-01T01:54:15;99662.06;;;21.44;55.42
49341;BME280;35209;51.050;13.678;2022-08-01T01:59:21;99668.50;;;21.30;56.10
49341;BME280;35209;51.050;13.678;2022-08-01T02:04:26;99663.53;;;21.25;56.30
49341;BME280;35209;51.050;13.678;2022-08-01T02:09:30;99670.72;;;21.13;56.57
49341;BME280;35209;51.050;13.678;2022-08-01T02:14:33;99676.44;;;21.09;56.61
49341;BME280;35209;51.050;13.678;2022-08-01T02:19:38;99678.75;;;21.02;57.46
49341;BME280;35209;51.050;13.678;2022-08-01T02:25:02;99676.59;;;21.07;57.32
49341;BME280;35209;51.050;13.678;2022-08-01T02:30:07;99689.78;;;21.20;57.71
49341;BME280;35209;51.050;13.678;2022-08-01T02:35:13;99692.25;;;21.12;57.67
49341;BME280;35209;51.050;13.678;2022-08-01T02:40:19;99703.50;;;21.15;56.94
49341;BME280;35209;51.050;13.678;2022-08-01T02:45:24;99701.19;;;21.45;55.78
49341;BME280;35209;51.050;13.678;2022-08-01T02:50:28;99695.59;;;21.36;59.05
49341;BME280;35209;51.050;13.678;2022-08-01T02:55:32;99689.41;;;21.36;58.97
49341;BME280;35209;51.050;13.678;2022-08-01T03:00:35;99678.97;;;21.10;59.98
49341;BME280;35209;51.050;13.678;2022-08-01T03:05:37;99686.75;;;21.02;59.85
49341;BME280;35209;51.050;13.678;2022-08-01T03:10:43;99695.53;;;21.04;59.67
49341;BME280;35209;51.050;13.678;2022-08-01T03:15:46;99699.84;;;21.28;58.50
49341;BME280;35209;51.050;13.678;2022-08-01T03:20:50;99702.06;;;21.23;58.70
49341;BME280;35209;51.050;13.678;2022-08-01T03:25:52;99696.47;;;21.26;58.72
49341;BME280;35209;51.050;13.678;2022-08-01T03:30:55;99697.44;;;21.13;59.04
49341;BME280;35209;51.050;13.678;2022-08-01T03:35:59;99702.06;;;21.11;59.26
49341;BME280;35209;51.050;13.678;2022-08-01T03:46:15;99710.94;;;21.12;59.90
49341;BME280;35209;51.050;13.678;2022-08-01T03:51:21;99706.22;;;21.04;60.11
49341;BME280;35209;51.050;13.678;2022-08-01T03:56:24;99704.16;;;21.08;60.51
49341;BME280;35209;51.050;13.678;2022-08-01T04:01:27;99699.25;;;21.35;59.95
49341;BME280;35209;51.050;13.678;2022-08-01T04:06:30;99711.66;;;21.36;60.30
49341;BME280;35209;51.050;13.678;2022-08-01T04:11:34;99711.06;;;21.22;60.46
49341;BME280;35209;51.050;13.678;2022-08-01T04:16:36;99714.47;;;21.35;59.43
49341;BME280;35209;51.050;13.678;2022-08-01T04:21:38;99719.66;;;21.48;58.74
49341;BME280;35209;51.050;13.678;2022-08-01T04:26:41;99725.25;;;21.45;58.74
49341;BME280;35209;51.050;13.678;2022-08-01T04:31:46;99722.56;;;21.45;58.66
49341;BME280;35209;51.050;13.678;2022-08-01T04:36:51;99726.47;;;21.40;58.64
49341;BME280;35209;51.050;13.678;2022-08-01T04:41:54;99733.66;;;21.40;58.33
49341;BME280;35209;51.050;13.678;2022-08-01T04:47:00;99735.34;;;21.19;59.49
49341;BME280;35209;51.050;13.678;2022-08-01T04:52:04;99736.22;;;21.08;61.74
49341;BME280;35209;51.050;13.678;2022-08-01T04:57:09;99739.13;;;21.05;62.79
49341;BME280;35209;51.050;13.678;2022-08-01T05:02:18;99738.88;;;20.97;63.35
49341;BME280;35209;51.050;13.678;2022-08-01T05:07:20;99744.59;;;20.92;63.98
49341;BME280;35209;51.050;13.678;2022-08-01T05:12:21;99747.63;;;20.87;65.19
49341;BME280;35209;51.050;13.678;2022-08-01T05:17:23;99761.47;;;20.92;65.48
49341;BME280;35209;51.050;13.678;2022-08-01T05:22:25;99763.31;;;20.81;67.12
49341;BME280;35209;51.050;13.678;2022-08-01T05:27:27;99764.41;;;20.89;67.52
49341;BME280;35209;51.050;13.678;2022-08-01T05:32:30;99757.84;;;21.05;67.64
49341;BME280;35209;51.050;13.678;2022-08-01T05:37:33;99759.31;;;21.31;67.01
49341;BME280;35209;51.050;13.678;2022-08-01T05:42:34;99766.56;;;21.52;66.70
49341;BME280;35209;51.050;13.678;2022-08-01T05:47:36;99760.09;;;21.54;67.01
49341;BME280;35209;51.050;13.678;2022-08-01T05:52:43;99763.97;;;21.61;66.97
49341;BME280;35209;51.050;13.678;2022-08-01T05:57:45;99762.63;;;21.67;65.72
49341;BME280;35209;51.050;13.678;2022-08-01T06:02:47;99768.06;;;21.77;65.71
49341;BME280;35209;51.050;13.678;2022-08-01T06:07:49;99777.81;;;21.66;66.05
49341;BME280;35209;51.050;13.678;2022-08-01T06:12:51;99777.38;;;21.50;66.76
49341;BME280;35209;51.050;13.678;2022-08-01T06:17:53;99783.69;;;21.60;66.10
49341;BME280;35209;51.050;13.678;2022-08-01T06:22:55;99788.75;;;21.75;66.37
49341;BME280;35209;51.050;13.678;2022-08-01T06:28:00;99793.03;;;21.66;66.77
49341;BME280;35209;51.050;13.678;2022-08-01T06:33:02;99799.22;;;21.66;67.27
49341;BME280;35209;51.050;13.678;2022-08-01T06:38:04;99808.38;;;21.53;67.79
49341;BME280;35209;51.050;13.678;2022-08-01T06:43:06;99812.13;;;21.61;68.63
49341;BME280;35209;51.050;13.678;2022-08-01T06:48:07;99827.84;;;21.32;74.48
49341;BME280;35209;51.050;13.678;2022-08-01T06:53:09;99828.88;;;20.96;79.53
49341;BME280;35209;51.050;13.678;2022-08-01T06:58:11;99831.78;;;20.82;82.32
49341;BME280;35209;51.050;13.678;2022-08-01T07:03:12;99824.69;;;20.23;88.11
49341;BME280;35209;51.050;13.678;2022-08-01T07:08:14;99828.69;;;20.05;91.42
49341;BME280;35209;51.050;13.678;2022-08-01T07:13:16;99837.72;;;19.91;91.85
49341;BME280;35209;51.050;13.678;2022-08-01T07:18:37;99834.09;;;19.92;93.51
49341;BME280;35209;51.050;13.678;2022-08-01T07:23:39;99840.69;;;19.99;95.37
49341;BME280;35209;51.050;13.678;2022-08-01T07:28:46;99837.13;;;20.23;92.37
49341;BME280;35209;51.050;13.678;2022-08-01T07:33:48;99834.25;;;20.26;92.25
49341;BME280;35209;51.050;13.678;2022-08-01T07:38:50;99828.47;;;20.08;92.02
49341;BME280;35209;51.050;13.678;2022-08-01T07:43:51;99841.88;;;20.19;94.72
49341;BME280;35209;51.050;13.678;2022-08-01T07:48:59;99843.53;;;20.44;92.82
49341;BME280;35209;51.050;13.678;2022-08-01T07:54:01;99833.00;;;20.78;90.19
49341;BME280;35209;51.050;13.678;2022-08-01T07:59:03;99833.75;;;21.02;88.00
49341;BME280;35209;51.050;13.678;2022-08-01T08:04:05;99830.22;;;21.24;86.61
49341;BME280;35209;51.050;13.678;2022-08-01T08:09:07;99827.84;;;21.44;86.03
49341;BME280;35209;51.050;13.678;2022-08-01T08:14:09;99834.72;;;21.69;85.69
49341;BME280;35209;51.050;13.678;2022-08-01T08:19:11;99846.19;;;22.14;82.04
49341;BME280;35209;51.050;13.678;2022-08-01T08:24:13;99832.84;;;22.35;81.93
49341;BME280;35209;51.050;13.678;2022-08-01T08:29:27;99822.13;;;22.35;76.74
49341;BME280;35209;51.050;13.678;2022-08-01T08:34:31;99834.34;;;22.28;77.78
49341;BME280;35209;51.050;13.678;2022-08-01T08:39:34;99831.38;;;22.31;75.40
49341;BME280;35209;51.050;13.678;2022-08-01T08:44:42;99835.03;;;22.30;76.54
49341;BME280;35209;51.050;13.678;2022-08-01T08:49:45;99831.72;;;22.90;73.13
49341;BME280;35209;51.050;13.678;2022-08-01T08:54:50;99830.84;;;23.11;72.07
49341;BME280;35209;51.050;13.678;2022-08-01T08:59:52;99830.66;;;23.74;69.53
49341;BME280;35209;51.050;13.678;2022-08-01T09:04:55;99833.69;;;24.09;65.07
49341;BME280;35209;51.050;13.678;2022-08-01T09:09:58;99840.59;;;23.92;65.45
49341;BME280;35209;51.050;13.678;2022-08-01T09:14:59;99842.13;;;23.85;64.89
49341;BME280;35209;51.050;13.678;2022-08-01T09:20:01;99833.34;;;23.74;67.06
49341;BME280;35209;51.050;13.678;2022-08-01T09:25:12;99832.00;;;24.28;61.52
49341;BME280;35209;51.050;13.678;2022-08-01T09:30:17;99831.69;;;24.70;60.45
49341;BME280;35209;51.050;13.678;2022-08-01T09:35:42;99832.94;;;25.32;59.25
49341;BME280;35209;51.050;13.678;2022-08-01T09:40:53;99838.09;;;25.90;54.71
49341;BME280;35209;51.050;13.678;2022-08-01T09:45:56;99834.44;;;25.81;55.11
49341;BME280;35209;51.050;13.678;2022-08-01T09:50:59;99836.38;;;26.25;53.97
49341;BME280;35209;51.050;13.678;2022-08-01T09:56:11;99845.72;;;26.12;53.22
49341;BME280;35209;51.050;13.678;2022-08-01T10:01:13;99829.91;;;25.82;54.40
49341;BME280;35209;51.050;13.678;2022-08-01T10:06:20;99830.97;;;25.61;55.43
49341;BME280;35209;51.050;13.678;2022-08-01T10:11:26;99833.34;;;25.47;54.71
49341;BME280;35209;51.050;13.678;2022-08-01T10:16:37;99844.66;;;25.50;54.82
49341;BME280;35209;51.050;13.678;2022-08-01T10:21:39;99840.63;;;25.27;55.47
49341;BME280;35209;51.050;13.678;2022-08-01T10:27:03;99840.78;;;25.53;53.77
49341;BME280;35209;51.050;13.678;2022-08-01T10:32:09;99846.56;;;25.30;55.08
49341;BME280;35209;51.050;13.678;2022-08-01T10:37:12;99840.66;;;24.41;60.01
49341;BME280;35209;51.050;13.678;2022-08-01T10:42:17;99851.56;;;23.80;66.10
49341;BME280;35209;51.050;13.678;2022-08-01T10:47:25;99864.78;;;23.62;66.01
49341;BME280;35209;51.050;13.678;2022-08-01T10:53:16;99858.56;;;23.61;65.58
49341;BME280;35209;51.050;13.678;2022-08-01T10:58:33;99857.22;;;23.46;63.15
49341;BME280;35209;51.050;13.678;2022-08-01T11:03:45;99853.56;;;23.87;62.78
49341;BME280;35209;51.050;13.678;2022-08-01T11:14:17;99844.81;;;26.57;52.21
49341;BME280;35209;51.050;13.678;2022-08-01T11:25:08;99834.31;;;27.24;51.41
49341;BME280;35209;51.050;13.678;2022-08-01T11:35:17;99819.44;;;28.05;48.38
49341;BME280;35209;51.050;13.678;2022-08-01T11:40:23;99837.50;;;27.20;50.59
49341;BME280;35209;51.050;13.678;2022-08-01T11:45:46;99857.31;;;25.30;67.71
49341;BME280;35209;51.050;13.678;2022-08-01T11:50:52;99847.22;;;24.08;72.99
49341;BME280;35209;51.050;13.678;2022-08-01T11:55:54;99845.28;;;24.10;73.77
49341;BME280;35209;51.050;13.678;2022-08-01T12:00:57;99849.38;;;23.64;73.92
49341;BME280;35209;51.050;13.678;2022-08-01T12:05:59;99855.34;;;23.67;72.67
49341;BME280;35209;51.050;13.678;2022-08-01T12:11:03;99854.28;;;23.99;75.12
49341;BME280;35209;51.050;13.678;2022-08-01T12:16:07;99851.06;;;24.92;69.64
49341;BME280;35209;51.050;13.678;2022-08-01T12:21:09;99855.69;;;25.47;62.02
49341;BME280;35209;51.050;13.678;2022-08-01T12:26:11;99858.97;;;24.94;63.41
49341;BME280;35209;51.050;13.678;2022-08-01T12:31:35;99863.16;;;25.53;60.34
49341;BME280;35209;51.050;13.678;2022-08-01T12:36:37;99855.84;;;25.08;59.44
49341;BME280;35209;51.050;13.678;2022-08-01T12:41:42;99849.94;;;25.42;57.94
49341;BME280;35209;51.050;13.678;2022-08-01T12:46:44;99849.81;;;25.89;57.46
49341;BME280;35209;51.050;13.678;2022-08-01T12:51:46;99851.16;;;25.48;57.50
49341;BME280;35209;51.050;13.678;2022-08-01T12:56:58;99846.59;;;25.21;57.56
49341;BME280;35209;51.050;13.678;2022-08-01T13:02:08;99847.28;;;25.60;55.25
49341;BME280;35209;51.050;13.678;2022-08-01T13:07:10;99855.00;;;25.73;53.87
49341;BME280;35209;51.050;13.678;2022-08-01T13:12:12;99840.13;;;25.78;53.51
49341;BME280;35209;51.050;13.678;2022-08-01T13:17:29;99840.91;;;25.88;51.68
49341;BME280;35209;51.050;13.678;2022-08-01T13:22:36;99841.13;;;25.67;51.92
49341;BME280;35209;51.050;13.678;2022-08-01T13:27:38;99839.88;;;26.17;50.58
49341;BME280;35209;51.050;13.678;2022-08-01T13:33:00;99843.25;;;26.19;48.37
49341;BME280;35209;51.050;13.678;2022-08-01T13:38:02;99852.34;;;26.54;48.32
49341;BME280;35209;51.050;13.678;2022-08-01T13:43:03;99854.66;;;26.31;49.45
49341;BME280;35209;51.050;13.678;2022-08-01T13:48:05;99854.34;;;26.52;48.72
49341;BME280;35209;51.050;13.678;2022-08-01T13:53:19;99850.25;;;26.30;48.88
49341;BME280;35209;51.050;13.678;2022-08-01T13:58:21;99844.78;;;26.75;49.05
49341;BME280;35209;51.050;13.678;2022-08-01T14:03:22;99850.03;;;26.23;48.73
49341;BME280;35209;51.050;13.678;2022-08-01T14:08:34;99848.34;;;26.22;48.87
49341;BME280;35209;51.050;13.678;2022-08-01T14:13:36;99864.34;;;26.41;48.70
49341;BME280;35209;51.050;13.678;2022-08-01T14:18:47;99867.50;;;26.55;48.16
49341;BME280;35209;51.050;13.678;2022-08-01T14:23:49;99871.81;;;26.30;48.67
49341;BME280;35209;51.050;13.678;2022-08-01T14:28:50;99875.78;;;25.90;50.19
49341;BME280;35209;51.050;13.678;2022-08-01T14:33:52;99876.28;;;25.66;50.35
49341;BME280;35209;51.050;13.678;2022-08-01T14:38:54;99874.38;;;25.86;50.07
49341;BME280;35209;51.050;13.678;2022-08-01T14:44:01;99874.66;;;26.28;48.52
49341;BME280;35209;51.050;13.678;2022-08-01T14:49:02;99879.84;;;25.94;48.79
49341;BME280;35209;51.050;13.678;2022-08-01T14:54:05;99876.81;;;25.79;48.49
49341;BME280;35209;51.050;13.678;2022-08-01T14:59:08;99882.84;;;25.91;49.41
49341;BME280;35209;51.050;13.678;2022-08-01T15:04:22;99882.69;;;25.65;48.90
49341;BME280;35209;51.050;13.678;2022-08-01T15:09:23;99887.31;;;25.73;49.01
49341;BME280;35209;51.050;13.678;2022-08-01T15:14:25;99891.84;;;25.72;48.41
49341;BME280;35209;51.050;13.678;2022-08-01T15:19:46;99885.59;;;25.81;49.10
49341;BME280;35209;51.050;13.678;2022-08-01T15:24:50;99892.13;;;25.41;49.67
49341;BME280;35209;51.050;13.678;2022-08-01T15:29:57;99889.16;;;25.72;48.81
49341;BME280;35209;51.050;13.678;2022-08-01T15:34:59;99894.91;;;25.59;48.98
49341;BME280;35209;51.050;13.678;2022-08-01T15:40:02;99886.00;;;25.49;49.28
49341;BME280;35209;51.050;13.678;2022-08-01T15:45:04;99893.97;;;25.78;48.42
49341;BME280;35209;51.050;13.678;2022-08-01T15:50:06;99902.75;;;25.80;47.60
49341;BME280;35209;51.050;13.678;2022-08-01T15:55:08;99898.50;;;26.05;46.52
49341;BME280;35209;51.050;13.678;2022-08-01T16:00:11;99890.28;;;26.42;46.12
49341;BME280;35209;51.050;13.678;2022-08-01T16:05:13;99897.88;;;26.57;46.35
49341;BME280;35209;51.050;13.678;2022-08-01T16:10:20;99904.91;;;25.77;47.57
49341;BME280;35209;51.050;13.678;2022-08-01T16:15:22;99902.06;;;25.69;48.05
49341;BME280;35209;51.050;13.678;2022-08-01T16:20:37;99901.25;;;25.58;47.86
49341;BME280;35209;51.050;13.678;2022-08-01T16:25:46;99892.59;;;25.64;48.18
49341;BME280;35209;51.050;13.678;2022-08-01T16:30:48;99895.25;;;25.74;47.70
49341;BME280;35209;51.050;13.678;2022-08-01T16:36:09;99892.59;;;25.64;47.39
49341;BME280;35209;51.050;13.678;2022-08-01T16:41:17;99901.78;;;25.34;47.68
49341;BME280;35209;51.050;13.678;2022-08-01T16:46:24;99909.59;;;25.18;47.99
49341;BME280;35209;51.050;13.678;2022-08-01T16:51:27;99897.88;;;25.09;48.05
49341;BME280;35209;51.050;13.678;2022-08-01T16:56:33;99901.09;;;25.32;47.36
49341;BME280;35209;51.050;13.678;2022-08-01T17:01:34;99891.47;;;25.30;47.49
49341;BME280;35209;51.050;13.678;2022-08-01T17:06:56;99896.59;;;25.04;48.47
49341;BME280;35209;51.050;13.678;2022-08-01T17:11:58;99899.50;;;25.39;46.96
49341;BME280;35209;51.050;13.678;2022-08-01T17:17:00;99903.66;;;25.24;47.20
49341;BME280;35209;51.050;13.678;2022-08-01T17:22:02;99903.53;;;25.16;47.00
49341;BME280;35209;51.050;13.678;2022-08-01T17:27:04;99909.06;;;24.95;47.78
49341;BME280;35209;51.050;13.678;2022-08-01T17:32:12;99918.53;;;24.70;49.17
49341;BME280;35209;51.050;13.678;2022-08-01T17:37:15;99924.66;;;24.62;48.84
49341;BME280;35209;51.050;13.678;2022-08-01T17:42:17;99920.97;;;24.44;48.67
49341;BME280;35209;51.050;13.678;2022-08-01T17:47:18;99923.31;;;24.28;49.23
49341;BME280;35209;51.050;13.678;2022-08-01T17:52:43;99920.91;;;24.25;50.16
49341;BME280;35209;51.050;13.678;2022-08-01T17:57:47;99929.22;;;24.12;50.24
49341;BME280;35209;51.050;13.678;2022-08-01T18:02:48;99941.63;;;24.03;49.79
49341;BME280;35209;51.050;13.678;2022-08-01T18:07:50;99933.44;;;23.95;50.42
49341;BME280;35209;51.050;13.678;2022-08-01T18:13:02;99940.72;;;23.83;50.50
49341;BME280;35209;51.050;13.678;2022-08-01T18:18:06;99944.28;;;23.94;50.84
49341;BME280;35209;51.050;13.678;2022-08-01T18:23:09;99942.25;;;23.76;51.62
49341;BME280;35209;51.050;13.678;2022-08-01T18:28:11;99948.59;;;23.75;51.62
49341;BME280;35209;51.050;13.678;2022-08-01T18:33:34;99951.84;;;23.48;52.76
49341;BME280;35209;51.050;13.678;2022-08-01T18:38:35;99956.91;;;23.21;53.55
49341;BME280;35209;51.050;13.678;2022-08-01T18:43:45;99961.81;;;23.15;53.82
49341;BME280;35209;51.050;13.678;2022-08-01T18:48:47;99967.09;;;23.06;53.86
49341;BME280;35209;51.050;13.678;2022-08-01T18:53:49;99985.28;;;23.02;54.44
49341;BME280;35209;51.050;13.678;2022-08-01T18:58:53;99980.50;;;23.06;54.84
49341;BME280;35209;51.050;13.678;2022-08-01T19:03:56;99991.88;;;22.87;55.28
49341;BME280;35209;51.050;13.678;2022-08-01T19:08:58;99995.50;;;22.65;55.69
49341;BME280;35209;51.050;13.678;2022-08-01T19:14:03;99994.44;;;22.56;56.54
49341;BME280;35209;51.050;13.678;2022-08-01T19:19:05;100007.59;;;22.48;56.27
49341;BME280;35209;51.050;13.678;2022-08-01T19:24:10;100013.94;;;22.47;56.57
49341;BME280;35209;51.050;13.678;2022-08-01T19:29:49;100024.19;;;22.42;56.66
49341;BME280;35209;51.050;13.678;2022-08-01T19:35:13;100031.03;;;22.12;57.86
49341;BME280;35209;51.050;13.678;2022-08-01T19:40:14;100041.72;;;22.35;56.84
49341;BME280;35209;51.050;13.678;2022-08-01T19:45:28;100049.38;;;22.06;57.89
49341;BME280;35209;51.050;13.678;2022-08-01T19:50:31;100057.03;;;21.99;58.19
49341;BME280;35209;51.050;13.678;2022-08-01T19:55:37;100059.22;;;21.94;58.28
49341;BME280;35209;51.050;13.678;2022-08-01T20:00:40;100056.25;;;21.52;60.13
49341;BME280;35209;51.050;13.678;2022-08-01T20:05:43;100072.66;;;21.48;60.24
49341;BME280;35209;51.050;13.678;2022-08-01T20:10:45;100070.56;;;21.51;60.31
49341;BME280;35209;51.050;13.678;2022-08-01T20:15:50;100086.31;;;21.67;59.34
49341;BME280;35209;51.050;13.678;2022-08-01T20:20:52;100092.59;;;21.55;59.79
49341;BME280;35209;51.050;13.678;2022-08-01T20:25:55;100090.16;;;21.28;60.81
49341;BME280;35209;51.050;13.678;2022-08-01T20:31:00;100090.00;;;21.18;61.18
49341;BME280;35209;51.050;13.678;2022-08-01T20:36:06;100087.91;;;21.10;61.94
49341;BME280;35209;51.050;13.678;2022-08-01T20:41:26;100094.00;;;21.12;61.58
49341;BME280;35209;51.050;13.678;2022-08-01T20:46:28;100099.84;;;20.94;62.10
49341;BME280;35209;51.050;13.678;2022-08-01T20:51:30;100103.53;;;20.80;62.95
49341;BME280;35209;51.050;13.678;2022-08-01T20:56:38;100111.81;;;20.64;63.67
49341;BME280;35209;51.050;13.678;2022-08-01T21:07:23;100107.66;;;20.34;64.94
49341;BME280;35209;51.050;13.678;2022-08-01T21:12:27;100112.69;;;20.52;63.79
49341;BME280;35209;51.050;13.678;2022-08-01T21:18:03;100116.63;;;20.59;63.59
49341;BME280;35209;51.050;13.678;2022-08-01T21:23:22;100113.44;;;20.41;64.13
49341;BME280;35209;51.050;13.678;2022-08-01T21:28:27;100115.78;;;20.33;64.48
49341;BME280;35209;51.050;13.678;2022-08-01T21:33:29;100117.06;;;20.27;64.83
49341;BME280;35209;51.050;13.678;2022-08-01T21:38:31;100115.28;;;20.15;65.81
49341;BME280;35209;51.050;13.678;2022-08-01T21:43:35;100123.50;;;19.99;66.56
49341;BME280;35209;51.050;13.678;2022-08-01T21:48:37;100123.59;;;19.85;67.18
49341;BME280;35209;51.050;13.678;2022-08-01T21:54:20;100127.44;;;20.06;65.97
49341;BME280;35209;51.050;13.678;2022-08-01T21:59:28;100133.28;;;19.86;66.91
49341;BME280;35209;51.050;13.678;2022-08-01T22:04:46;100138.31;;;19.78;67.59
49341;BME280;35209;51.050;13.678;2022-08-01T22:09:49;100142.47;;;19.82;67.39
49341;BME280;35209;51.050;13.678;2022-08-01T22:14:52;100138.97;;;19.94;66.81
49341;BME280;35209;51.050;13.678;2022-08-01T22:19:56;100151.47;;;19.94;67.04
49341;BME280;35209;51.050;13.678;2022-08-01T22:24:59;100158.06;;;19.88;67.26
49341;BME280;35209;51.050;13.678;2022-08-01T22:30:03;100158.88;;;19.63;68.56
49341;BME280;35209;51.050;13.678;2022-08-01T22:35:11;100160.47;;;19.38;69.96
49341;BME280;35209;51.050;13.678;2022-08-01T22:40:13;100164.28;;;19.34;70.33
49341;BME280;35209;51.050;13.678;2022-08-01T22:50:33;100162.81;;;19.30;70.84
49341;BME280;35209;51.050;13.678;2022-08-01T22:55:42;100163.91;;;19.13;72.51
49341;BME280;35209;51.050;13.678;2022-08-01T23:01:00;100173.66;;;19.00;73.37
49341;BME280;35209;51.050;13.678;2022-08-01T23:06:09;100171.72;;;19.02;72.86
49341;BME280;35209;51.050;13.678;2022-08-01T23:11:11;100166.69;;;18.98;73.64
49341;BME280;35209;51.050;13.678;2022-08-01T23:16:13;100171.19;;;18.97;73.95
49341;BME280;35209;51.050;13.678;2022-08-01T23:21:18;100174.00;;;19.08;74.02
49341;BME280;35209;51.050;13.678;2022-08-01T23:26:21;100177.28;;;18.99;74.19
49341;BME280;35209;51.050;13.678;2022-08-01T23:31:25;100178.69;;;19.05;73.99
49341;BME280;35209;51.050;13.678;2022-08-01T23:36:47;100176.34;;;18.86;74.88
49341;BME280;35209;51.050;13.678;2022-08-01T23:41:48;100169.75;;;18.63;76.15
49341;BME280;35209;51.050;13.678;2022-08-01T23:47:00;100177.19;;;18.58;76.78
49341;BME280;35209;51.050;13.678;2022-08-01T23:52:02;100177.69;;;18.64;76.43
49341;BME280;35209;51.050;13.678;2022-08-01T23:57:04;100170.09;;;18.73;75.67
